sensor_id;sensor_type;location;lat;lon;timestamp;temperature;humidity
64599;SHT31;51008;51.504;11.548;2023-05-06T00:04:45;12.24;92.09
64599;SHT31;51008;51.504;11.548;2023-05-06T00:09:47;12.25;91.70
64599;SHT31;51008;51.504;11.548;2023-05-06T00:14:48;12.24;91.51
64599;SHT31;51008;51.504;11.548;2023-05-06T00:19:49;12.25;91.53
64599;SHT31;51008;51.504;11.548;2023-05-06T00:24:50;12.24;91.14
64599;SHT31;51008;51.504;11.548;2023-05-06T00:29:51;12.21;90.93
64599;SHT31;51008;51.504;11.548;2023-05-06T00:34:52;12.11;90.64
64599;SHT31;51008;51.504;11.548;2023-05-06T00:39:53;11.98;90.73
64599;SHT31;51008;51.504;11.548;2023-05-06T00:44:54;11.93;90.86
64599;SHT31;51008;51.504;11.548;2023-05-06T00:49:55;11.86;91.12
64599;SHT31;51008;51.504;11.548;2023-05-06T00:54:56;11.81;91.38
64599;SHT31;51008;51.504;11.548;2023-05-06T00:59:57;11.79;91.47
64599;SHT31;51008;51.504;11.548;2023-05-06T01:04:59;11.80;91.38
64599;SHT31;51008;51.504;11.548;2023-05-06T01:10:12;11.80;91.44
64599;SHT31;51008;51.504;11.548;2023-05-06T01:15:19;11.84;91.55
64599;SHT31;51008;51.504;11.548;2023-05-06T01:20:21;11.83;91.67
64599;SHT31;51008;51.504;11.548;2023-05-06T01:25:22;11.81;91.66
64599;SHT31;51008;51.504;11.548;2023-05-06T01:30:28;11.83;91.67
64599;SHT31;51008;51.504;11.548;2023-05-06T01:40:56;11.69;92.17
64599;SHT31;51008;51.504;11.548;2023-05-06T01:45:59;11.67;91.88
64599;SHT31;51008;51.504;11.548;2023-05-06T01:51:00;11.67;92.12
64599;SHT31;51008;51.504;11.548;2023-05-06T01:56:02;11.66;92.15
64599;SHT31;51008;51.504;11.548;2023-05-06T02:01:03;11.61;92.06
64599;SHT31;51008;51.504;11.548;2023-05-06T02:06:04;11.52;92.13
64599;SHT31;51008;51.504;11.548;2023-05-06T02:11:10;11.49;92.38
64599;SHT31;51008;51.504;11.548;2023-05-06T02:16:12;11.40;92.70
64599;SHT31;51008;51.504;11.548;2023-05-06T02:21:13;11.38;93.18
64599;SHT31;51008;51.504;11.548;2023-05-06T02:26:14;11.32;93.18
64599;SHT31;51008;51.504;11.548;2023-05-06T02:31:15;11.34;93.37
64599;SHT31;51008;51.504;11.548;2023-05-06T02:36:16;11.32;92.97
64599;SHT31;51008;51.504;11.548;2023-05-06T02:41:17;11.28;92.88
64599;SHT31;51008;51.504;11.548;2023-05-06T02:46:18;11.28;92.99
64599;SHT31;51008;51.504;11.548;2023-05-06T02:51:19;11.21;93.08
64599;SHT31;51008;51.504;11.548;2023-05-06T02:56:20;11.15;93.67
64599;SHT31;51008;51.504;11.548;2023-05-06T03:01:21;11.18;93.82
64599;SHT31;51008;51.504;11.548;2023-05-06T03:06:22;11.14;94.30
64599;SHT31;51008;51.504;11.548;2023-05-06T03:11:23;11.18;94.35
64599;SHT31;51008;51.504;11.548;2023-05-06T03:16:24;11.18;94.47
64599;SHT31;51008;51.504;11.548;2023-05-06T03:21:28;11.15;94.36
64599;SHT31;51008;51.504;11.548;2023-05-06T03:26:29;11.15;94.27
64599;SHT31;51008;51.504;11.548;2023-05-06T03:31:31;11.15;94.13
64599;SHT31;51008;51.504;11.548;2023-05-06T03:36:35;11.15;94.11
64599;SHT31;51008;51.504;11.548;2023-05-06T03:41:36;11.15;94.21
64599;SHT31;51008;51.504;11.548;2023-05-06T03:46:37;11.01;94.61
64599;SHT31;51008;51.504;11.548;2023-05-06T03:51:39;10.97;94.53
64599;SHT31;51008;51.504;11.548;2023-05-06T03:56:41;10.94;94.45
64599;SHT31;51008;51.504;11.548;2023-05-06T04:01:42;10.89;94.45
64599;SHT31;51008;51.504;11.548;2023-05-06T04:06:45;10.75;94.77
64599;SHT31;51008;51.504;11.548;2023-05-06T04:11:46;10.77;96.42
64599;SHT31;51008;51.504;11.548;2023-05-06T04:16:50;10.93;96.39
64599;SHT31;51008;51.504;11.548;2023-05-06T04:21:51;11.04;96.21
64599;SHT31;51008;51.504;11.548;2023-05-06T04:26:54;11.18;96.06
64599;SHT31;51008;51.504;11.548;2023-05-06T04:31:55;11.39;95.72
64599;SHT31;51008;51.504;11.548;2023-05-06T04:36:58;11.63;95.63
64599;SHT31;51008;51.504;11.548;2023-05-06T04:42:11;11.91;95.16
64599;SHT31;51008;51.504;11.548;2023-05-06T04:47:19;12.15;94.61
64599;SHT31;51008;51.504;11.548;2023-05-06T04:52:24;12.36;93.66
64599;SHT31;51008;51.504;11.548;2023-05-06T04:57:25;12.62;93.07
64599;SHT31;51008;51.504;11.548;2023-05-06T05:02:28;12.64;91.96
64599;SHT31;51008;51.504;11.548;2023-05-06T05:07:30;12.63;91.86
64599;SHT31;51008;51.504;11.548;2023-05-06T05:12:31;12.59;92.29
64599;SHT31;51008;51.504;11.548;2023-05-06T05:17:33;12.48;92.66
64599;SHT31;51008;51.504;11.548;2023-05-06T05:22:34;12.49;92.86
64599;SHT31;51008;51.504;11.548;2023-05-06T05:27:35;12.49;92.86
64599;SHT31;51008;51.504;11.548;2023-05-06T05:32:36;12.56;92.64
64599;SHT31;51008;51.504;11.548;2023-05-06T05:37:37;12.69;92.38
64599;SHT31;51008;51.504;11.548;2023-05-06T05:42:39;12.88;92.22
64599;SHT31;51008;51.504;11.548;2023-05-06T05:47:47;12.98;91.55
64599;SHT31;51008;51.504;11.548;2023-05-06T05:52:50;13.04;91.45
64599;SHT31;51008;51.504;11.548;2023-05-06T05:57:52;13.08;90.88
64599;SHT31;51008;51.504;11.548;2023-05-06T06:02:55;13.14;90.39
64599;SHT31;51008;51.504;11.548;2023-05-06T06:07:57;13.18;89.91
64599;SHT31;51008;51.504;11.548;2023-05-06T06:12:59;13.19;90.07
64599;SHT31;51008;51.504;11.548;2023-05-06T06:18:03;13.19;89.84
64599;SHT31;51008;51.504;11.548;2023-05-06T06:23:05;13.29;89.56
64599;SHT31;51008;51.504;11.548;2023-05-06T06:28:06;13.56;88.93
64599;SHT31;51008;51.504;11.548;2023-05-06T06:33:07;13.66;87.98
64599;SHT31;51008;51.504;11.548;2023-05-06T06:38:08;13.83;87.73
64599;SHT31;51008;51.504;11.548;2023-05-06T06:43:09;13.83;87.42
64599;SHT31;51008;51.504;11.548;2023-05-06T06:48:29;13.69;87.46
64599;SHT31;51008;51.504;11.548;2023-05-06T06:53:30;13.65;87.08
64599;SHT31;51008;51.504;11.548;2023-05-06T06:58:32;13.76;87.41
64599;SHT31;51008;51.504;11.548;2023-05-06T07:03:32;13.78;86.72
64599;SHT31;51008;51.504;11.548;2023-05-06T07:08:33;13.76;87.22
64599;SHT31;51008;51.504;11.548;2023-05-06T07:13:35;13.71;87.54
64599;SHT31;51008;51.504;11.548;2023-05-06T07:18:36;13.57;88.83
64599;SHT31;51008;51.504;11.548;2023-05-06T07:23:37;13.48;88.75
64599;SHT31;51008;51.504;11.548;2023-05-06T07:28:38;13.56;88.54
64599;SHT31;51008;51.504;11.548;2023-05-06T07:33:39;13.71;87.98
64599;SHT31;51008;51.504;11.548;2023-05-06T07:38:40;14.07;87.15
64599;SHT31;51008;51.504;11.548;2023-05-06T07:43:41;14.15;86.29
64599;SHT31;51008;51.504;11.548;2023-05-06T07:48:42;14.30;86.68
64599;SHT31;51008;51.504;11.548;2023-05-06T07:53:43;14.33;85.72
64599;SHT31;51008;51.504;11.548;2023-05-06T07:58:44;14.37;84.51
64599;SHT31;51008;51.504;11.548;2023-05-06T08:03:44;14.56;85.54
64599;SHT31;51008;51.504;11.548;2023-05-06T08:08:45;15.09;83.77
64599;SHT31;51008;51.504;11.548;2023-05-06T08:13:46;15.33;82.37
64599;SHT31;51008;51.504;11.548;2023-05-06T08:18:47;15.36;81.38
64599;SHT31;51008;51.504;11.548;2023-05-06T08:23:48;15.88;79.05
64599;SHT31;51008;51.504;11.548;2023-05-06T08:28:49;16.11;79.68
64599;SHT31;51008;51.504;11.548;2023-05-06T08:33:50;15.97;78.51
64599;SHT31;51008;51.504;11.548;2023-05-06T08:38:51;15.66;78.17
64599;SHT31;51008;51.504;11.548;2023-05-06T08:43:53;15.43;79.30
64599;SHT31;51008;51.504;11.548;2023-05-06T08:48:54;16.19;76.64
64599;SHT31;51008;51.504;11.548;2023-05-06T08:53:59;16.43;75.03
64599;SHT31;51008;51.504;11.548;2023-05-06T08:59:00;16.94;74.17
64599;SHT31;51008;51.504;11.548;2023-05-06T09:04:02;17.81;72.19
64599;SHT31;51008;51.504;11.548;2023-05-06T09:09:03;17.60;70.84
64599;SHT31;51008;51.504;11.548;2023-05-06T09:14:08;17.32;70.33
64599;SHT31;51008;51.504;11.548;2023-05-06T09:19:09;18.10;70.07
64599;SHT31;51008;51.504;11.548;2023-05-06T09:24:12;18.63;68.39
64599;SHT31;51008;51.504;11.548;2023-05-06T09:29:13;18.63;67.73
64599;SHT31;51008;51.504;11.548;2023-05-06T09:34:14;18.02;69.73
64599;SHT31;51008;51.504;11.548;2023-05-06T09:39:15;17.27;70.99
64599;SHT31;51008;51.504;11.548;2023-05-06T09:44:16;16.77;73.75
64599;SHT31;51008;51.504;11.548;2023-05-06T09:49:17;16.98;72.76
64599;SHT31;51008;51.504;11.548;2023-05-06T09:54:18;17.30;71.90
64599;SHT31;51008;51.504;11.548;2023-05-06T09:59:21;18.16;69.59
64599;SHT31;51008;51.504;11.548;2023-05-06T10:04:24;19.02;66.97
64599;SHT31;51008;51.504;11.548;2023-05-06T10:09:26;19.05;64.49
64599;SHT31;51008;51.504;11.548;2023-05-06T10:14:27;19.23;67.12
64599;SHT31;51008;51.504;11.548;2023-05-06T10:19:29;19.20;65.52
64599;SHT31;51008;51.504;11.548;2023-05-06T10:24:35;19.55;66.25
64599;SHT31;51008;51.504;11.548;2023-05-06T10:29:40;20.12;63.70
64599;SHT31;51008;51.504;11.548;2023-05-06T10:34:51;19.77;64.26
64599;SHT31;51008;51.504;11.548;2023-05-06T10:39:53;19.26;66.79
64599;SHT31;51008;51.504;11.548;2023-05-06T10:44:56;18.96;66.72
64599;SHT31;51008;51.504;11.548;2023-05-06T10:55:31;19.30;67.05
64599;SHT31;51008;51.504;11.548;2023-05-06T11:00:33;18.96;64.82
64599;SHT31;51008;51.504;11.548;2023-05-06T11:05:50;18.51;66.63
64599;SHT31;51008;51.504;11.548;2023-05-06T11:10:52;18.16;67.78
64599;SHT31;51008;51.504;11.548;2023-05-06T11:15:54;17.88;67.36
64599;SHT31;51008;51.504;11.548;2023-05-06T11:26:00;17.99;67.41
64599;SHT31;51008;51.504;11.548;2023-05-06T11:31:01;17.88;66.63
64599;SHT31;51008;51.504;11.548;2023-05-06T11:36:03;17.94;67.76
64599;SHT31;51008;51.504;11.548;2023-05-06T11:41:04;18.09;67.36
64599;SHT31;51008;51.504;11.548;2023-05-06T11:46:05;17.71;67.12
64599;SHT31;51008;51.504;11.548;2023-05-06T11:51:06;17.50;67.85
64599;SHT31;51008;51.504;11.548;2023-05-06T11:56:07;17.88;66.34
64599;SHT31;51008;51.504;11.548;2023-05-06T12:01:08;18.51;66.30
64599;SHT31;51008;51.504;11.548;2023-05-06T12:06:09;19.16;64.24
64599;SHT31;51008;51.504;11.548;2023-05-06T12:11:10;18.33;63.49
64599;SHT31;51008;51.504;11.548;2023-05-06T12:16:11;18.12;65.12
64599;SHT31;51008;51.504;11.548;2023-05-06T12:21:12;18.69;64.00
64599;SHT31;51008;51.504;11.548;2023-05-06T12:26:13;18.60;63.96
64599;SHT31;51008;51.504;11.548;2023-05-06T12:31:22;18.71;65.56
64599;SHT31;51008;51.504;11.548;2023-05-06T12:36:23;18.56;66.08
64599;SHT31;51008;51.504;11.548;2023-05-06T12:41:36;18.68;64.08
64599;SHT31;51008;51.504;11.548;2023-05-06T12:46:49;18.60;62.63
64599;SHT31;51008;51.504;11.548;2023-05-06T12:52:06;18.01;62.66
64599;SHT31;51008;51.504;11.548;2023-05-06T12:57:08;18.10;63.95
64599;SHT31;51008;51.504;11.548;2023-05-06T13:02:09;18.39;62.03
64599;SHT31;51008;51.504;11.548;2023-05-06T13:07:10;18.58;62.57
64599;SHT31;51008;51.504;11.548;2023-05-06T13:12:11;18.71;64.49
64599;SHT31;51008;51.504;11.548;2023-05-06T13:17:12;19.05;65.11
64599;SHT31;51008;51.504;11.548;2023-05-06T13:22:13;19.71;63.22
64599;SHT31;51008;51.504;11.548;2023-05-06T13:27:14;19.16;61.81
64599;SHT31;51008;51.504;11.548;2023-05-06T13:32:15;19.72;63.10
64599;SHT31;51008;51.504;11.548;2023-05-06T13:37:16;19.85;61.37
64599;SHT31;51008;51.504;11.548;2023-05-06T13:42:16;19.88;62.50
64599;SHT31;51008;51.504;11.548;2023-05-06T13:47:17;19.82;62.96
64599;SHT31;51008;51.504;11.548;2023-05-06T13:52:18;19.79;65.61
64599;SHT31;51008;51.504;11.548;2023-05-06T13:57:19;19.57;63.66
64599;SHT31;51008;51.504;11.548;2023-05-06T14:02:20;20.25;65.32
64599;SHT31;51008;51.504;11.548;2023-05-06T14:07:21;20.08;60.58
64599;SHT31;51008;51.504;11.548;2023-05-06T14:12:22;19.78;63.57
64599;SHT31;51008;51.504;11.548;2023-05-06T14:17:23;19.72;63.46
64599;SHT31;51008;51.504;11.548;2023-05-06T14:22:24;19.60;65.15
64599;SHT31;51008;51.504;11.548;2023-05-06T14:27:25;19.70;64.18
64599;SHT31;51008;51.504;11.548;2023-05-06T14:32:26;19.33;64.43
64599;SHT31;51008;51.504;11.548;2023-05-06T14:37:27;19.09;64.83
64599;SHT31;51008;51.504;11.548;2023-05-06T14:42:28;19.15;65.85
64599;SHT31;51008;51.504;11.548;2023-05-06T14:47:29;19.71;66.89
64599;SHT31;51008;51.504;11.548;2023-05-06T14:52:30;19.68;65.91
64599;SHT31;51008;51.504;11.548;2023-05-06T14:57:31;19.51;64.41
64599;SHT31;51008;51.504;11.548;2023-05-06T15:02:32;19.51;64.31
64599;SHT31;51008;51.504;11.548;2023-05-06T15:07:33;19.44;64.22
64599;SHT31;51008;51.504;11.548;2023-05-06T15:12:34;19.26;64.79
64599;SHT31;51008;51.504;11.548;2023-05-06T15:17:35;19.30;66.09
64599;SHT31;51008;51.504;11.548;2023-05-06T15:22:36;19.37;68.32
64599;SHT31;51008;51.504;11.548;2023-05-06T15:27:37;18.96;67.82
64599;SHT31;51008;51.504;11.548;2023-05-06T15:32:38;18.28;69.30
64599;SHT31;51008;51.504;11.548;2023-05-06T15:37:39;18.01;70.15
64599;SHT31;51008;51.504;11.548;2023-05-06T15:42:40;18.41;69.77
64599;SHT31;51008;51.504;11.548;2023-05-06T15:47:41;18.36;70.07
64599;SHT31;51008;51.504;11.548;2023-05-06T15:52:42;18.10;69.34
64599;SHT31;51008;51.504;11.548;2023-05-06T15:57:43;17.85;71.25
64599;SHT31;51008;51.504;11.548;2023-05-06T16:02:44;17.66;72.45
64599;SHT31;51008;51.504;11.548;2023-05-06T16:07:45;17.33;72.67
64599;SHT31;51008;51.504;11.548;2023-05-06T16:12:46;17.22;72.32
64599;SHT31;51008;51.504;11.548;2023-05-06T16:17:47;16.99;73.49
64599;SHT31;51008;51.504;11.548;2023-05-06T16:22:49;16.91;74.08
64599;SHT31;51008;51.504;11.548;2023-05-06T16:27:50;16.81;75.15
64599;SHT31;51008;51.504;11.548;2023-05-06T16:32:51;16.53;74.11
64599;SHT31;51008;51.504;11.548;2023-05-06T16:37:52;16.29;74.77
64599;SHT31;51008;51.504;11.548;2023-05-06T16:42:53;16.21;75.21
64599;SHT31;51008;51.504;11.548;2023-05-06T16:47:54;16.12;75.38
64599;SHT31;51008;51.504;11.548;2023-05-06T16:52:55;16.00;75.60
64599;SHT31;51008;51.504;11.548;2023-05-06T16:57:56;15.76;76.25
64599;SHT31;51008;51.504;11.548;2023-05-06T17:02:57;15.46;76.55
64599;SHT31;51008;51.504;11.548;2023-05-06T17:07:58;15.36;77.26
64599;SHT31;51008;51.504;11.548;2023-05-06T17:12:59;15.24;77.43
64599;SHT31;51008;51.504;11.548;2023-05-06T17:18:00;15.09;77.13
64599;SHT31;51008;51.504;11.548;2023-05-06T17:23:01;14.92;76.93
64599;SHT31;51008;51.504;11.548;2023-05-06T17:28:02;14.80;77.54
64599;SHT31;51008;51.504;11.548;2023-05-06T17:33:03;14.69;77.85
64599;SHT31;51008;51.504;11.548;2023-05-06T17:38:04;14.50;77.90
64599;SHT31;51008;51.504;11.548;2023-05-06T17:43:08;14.46;78.28
64599;SHT31;51008;51.504;11.548;2023-05-06T17:48:09;14.36;78.69
64599;SHT31;51008;51.504;11.548;2023-05-06T17:53:10;14.29;79.49
64599;SHT31;51008;51.504;11.548;2023-05-06T17:58:11;14.19;79.54
64599;SHT31;51008;51.504;11.548;2023-05-06T18:03:11;14.10;79.82
64599;SHT31;51008;51.504;11.548;2023-05-06T18:08:12;13.98;80.12
64599;SHT31;51008;51.504;11.548;2023-05-06T18:13:13;13.85;80.46
64599;SHT31;51008;51.504;11.548;2023-05-06T18:18:14;13.67;81.13
64599;SHT31;51008;51.504;11.548;2023-05-06T18:23:15;13.49;81.67
64599;SHT31;51008;51.504;11.548;2023-05-06T18:28:16;13.31;82.31
64599;SHT31;51008;51.504;11.548;2023-05-06T18:33:17;13.07;83.54
64599;SHT31;51008;51.504;11.548;2023-05-06T18:38:18;12.90;84.00
64599;SHT31;51008;51.504;11.548;2023-05-06T18:43:19;12.81;84.42
64599;SHT31;51008;51.504;11.548;2023-05-06T18:48:20;12.66;85.05
64599;SHT31;51008;51.504;11.548;2023-05-06T18:53:21;12.56;85.36
64599;SHT31;51008;51.504;11.548;2023-05-06T18:58:22;12.43;85.92
64599;SHT31;51008;51.504;11.548;2023-05-06T19:03:23;12.22;86.51
64599;SHT31;51008;51.504;11.548;2023-05-06T19:08:24;12.18;86.61
64599;SHT31;51008;51.504;11.548;2023-05-06T19:13:25;12.18;86.77
64599;SHT31;51008;51.504;11.548;2023-05-06T19:18:26;12.08;87.05
64599;SHT31;51008;51.504;11.548;2023-05-06T19:23:27;12.02;86.66
64599;SHT31;51008;51.504;11.548;2023-05-06T19:28:28;11.79;86.82
64599;SHT31;51008;51.504;11.548;2023-05-06T19:33:29;11.70;87.08
64599;SHT31;51008;51.504;11.548;2023-05-06T19:38:30;11.61;87.10
64599;SHT31;51008;51.504;11.548;2023-05-06T19:43:31;11.45;87.91
64599;SHT31;51008;51.504;11.548;2023-05-06T19:48:32;11.38;88.78
64599;SHT31;51008;51.504;11.548;2023-05-06T19:53:33;11.11;90.41
64599;SHT31;51008;51.504;11.548;2023-05-06T19:58:35;11.01;90.02
64599;SHT31;51008;51.504;11.548;2023-05-06T20:03:37;10.89;90.73
64599;SHT31;51008;51.504;11.548;2023-05-06T20:08:38;10.72;91.33
64599;SHT31;51008;51.504;11.548;2023-05-06T20:13:39;10.63;91.27
64599;SHT31;51008;51.504;11.548;2023-05-06T20:18:40;10.44;91.86
64599;SHT31;51008;51.504;11.548;2023-05-06T20:23:41;10.44;91.44
64599;SHT31;51008;51.504;11.548;2023-05-06T20:28:42;10.32;91.72
64599;SHT31;51008;51.504;11.548;2023-05-06T20:33:43;10.27;91.67
64599;SHT31;51008;51.504;11.548;2023-05-06T20:38:44;10.27;90.91
64599;SHT31;51008;51.504;11.548;2023-05-06T20:43:45;10.20;90.56
64599;SHT31;51008;51.504;11.548;2023-05-06T20:48:46;10.18;90.43
64599;SHT31;51008;51.504;11.548;2023-05-06T20:53:47;10.31;89.86
64599;SHT31;51008;51.504;11.548;2023-05-06T20:58:48;10.37;89.97
64599;SHT31;51008;51.504;11.548;2023-05-06T21:03:49;10.28;89.91
64599;SHT31;51008;51.504;11.548;2023-05-06T21:08:50;10.24;90.21
64599;SHT31;51008;51.504;11.548;2023-05-06T21:13:51;10.30;90.08
64599;SHT31;51008;51.504;11.548;2023-05-06T21:18:52;10.18;90.46
64599;SHT31;51008;51.504;11.548;2023-05-06T21:23:53;10.17;90.63
64599;SHT31;51008;51.504;11.548;2023-05-06T21:28:54;10.11;90.91
64599;SHT31;51008;51.504;11.548;2023-05-06T21:33:56;10.03;91.25
64599;SHT31;51008;51.504;11.548;2023-05-06T21:39:09;10.08;90.85
64599;SHT31;51008;51.504;11.548;2023-05-06T21:44:10;10.08;90.87
64599;SHT31;51008;51.504;11.548;2023-05-06T21:49:11;10.00;90.93
64599;SHT31;51008;51.504;11.548;2023-05-06T21:54:12;9.93;91.05
64599;SHT31;51008;51.504;11.548;2023-05-06T21:59:13;9.96;91.38
64599;SHT31;51008;51.504;11.548;2023-05-06T22:04:14;9.85;91.47
64599;SHT31;51008;51.504;11.548;2023-05-06T22:09:15;9.85;91.20
64599;SHT31;51008;51.504;11.548;2023-05-06T22:14:16;9.79;91.58
64599;SHT31;51008;51.504;11.548;2023-05-06T22:19:17;9.78;91.60
64599;SHT31;51008;51.504;11.548;2023-05-06T22:24:18;9.72;91.61
64599;SHT31;51008;51.504;11.548;2023-05-06T22:29:19;9.68;91.67
64599;SHT31;51008;51.504;11.548;2023-05-06T22:34:20;9.69;91.85
64599;SHT31;51008;51.504;11.548;2023-05-06T22:39:22;9.69;91.63
64599;SHT31;51008;51.504;11.548;2023-05-06T22:44:23;9.68;91.78
64599;SHT31;51008;51.504;11.548;2023-05-06T22:49:24;9.62;92.11
64599;SHT31;51008;51.504;11.548;2023-05-06T22:54:24;9.62;92.18
64599;SHT31;51008;51.504;11.548;2023-05-06T22:59:26;9.56;92.06
64599;SHT31;51008;51.504;11.548;2023-05-06T23:04:27;9.56;91.96
64599;SHT31;51008;51.504;11.548;2023-05-06T23:09:28;9.44;92.12
64599;SHT31;51008;51.504;11.548;2023-05-06T23:14:29;9.42;92.17
64599;SHT31;51008;51.504;11.548;2023-05-06T23:19:30;9.46;92.05
64599;SHT31;51008;51.504;11.548;2023-05-06T23:24:31;9.53;91.99
64599;SHT31;51008;51.504;11.548;2023-05-06T23:29:32;9.58;91.82
64599;SHT31;51008;51.504;11.548;2023-05-06T23:34:33;9.59;91.88
64599;SHT31;51008;51.504;11.548;2023-05-06T23:39:33;9.62;91.73
64599;SHT31;51008;51.504;11.548;2023-05-06T23:44:35;9.61;91.73
64599;SHT31;51008;51.504;11.548;2023-05-06T23:49:36;9.55;91.96
64599;SHT31;51008;51.504;11.548;2023-05-06T23:54:37;9.55;92.12
64599;SHT31;51008;51.504;11.548;2023-05-06T23:59:38;9.61;92.08
